Terminal Aerodrome Forecast
Issued by NWS Grand Forks, ND

Home | Current Version | Previous Version | Text Only | Print | Product List | Glossary On
Versions: 1 2 3 4 5 6 7 8 9 10 11 12 13
267
FTUS43 KFGF 231727
TAFGFK
TAF
KGFK 231727Z 2318/2418 35010KT P6SM FEW250
     FM240500 35008KT P6SM BKN110
     FM241200 34008KT P6SM SCT150
     FM241500 35012G18KT P6SM SKC=

USA.gov is the U.S. government's official web portal to all federal, state and local government web resources and services.